createdAt,value
2023-02-14T00:02:25.968Z,6.99
2023-02-14T00:04:55.631Z,7.01
2023-02-14T00:07:23.729Z,7.05
2023-02-14T00:09:53.205Z,7.06
2023-02-14T00:12:23.697Z,7.03
2023-02-14T00:15:11.584Z,7.05
2023-02-14T00:17:40.766Z,7.04
2023-02-14T00:20:08.448Z,7.03
2023-02-14T00:22:40.046Z,7.05
2023-02-14T00:25:09.322Z,7.06
2023-02-14T00:27:41.209Z,7.06
2023-02-14T00:30:13.912Z,7.03
2023-02-14T00:32:44.645Z,7.04
2023-02-14T00:35:17.086Z,7.05
2023-02-14T00:37:49.087Z,7.06
2023-02-14T00:40:18.014Z,7.08
2023-02-14T00:42:45.510Z,7.06
2023-02-14T00:45:14.886Z,7.07
2023-02-14T00:47:45.054Z,7.06
2023-02-14T00:50:14.431Z,7.07
2023-02-14T00:52:44.793Z,7.07
2023-02-14T00:55:16.796Z,7.09
2023-02-14T00:57:48.787Z,7.10
2023-02-14T01:00:17.518Z,7.11
2023-02-14T01:02:45.475Z,7.12
2023-02-14T01:05:14.397Z,7.13
2023-02-14T01:07:50.792Z,7.14
2023-02-14T01:10:20.912Z,7.16
2023-02-14T01:12:53.334Z,7.19
2023-02-14T01:15:22.882Z,7.23
2023-02-14T01:17:52.638Z,7.25
2023-02-14T01:20:20.604Z,7.28
2023-02-14T01:22:49.527Z,7.32
2023-02-14T01:25:20.475Z,7.34
2023-02-14T01:27:48.997Z,7.38
2023-02-14T01:30:18.539Z,7.43
2023-02-14T01:32:48.859Z,7.50
2023-02-14T01:35:20.282Z,7.57
2023-02-14T01:37:49.082Z,7.64
2023-02-14T01:40:18.584Z,7.67
2023-02-14T01:42:50.195Z,7.68
2023-02-14T01:45:22.471Z,7.69
2023-02-14T01:47:55.935Z,7.68
2023-02-14T01:50:28.343Z,7.66
2023-02-14T01:53:03.832Z,7.64
2023-02-14T01:55:35.289Z,7.60
2023-02-14T01:58:08.770Z,7.56
2023-02-14T02:00:57.506Z,7.52
2023-02-14T02:03:50.924Z,7.50
2023-02-14T02:06:24.210Z,7.45
2023-02-14T02:09:06.264Z,7.41
2023-02-14T02:11:34.135Z,7.38
2023-02-14T02:14:01.619Z,7.33
2023-02-14T02:16:51.366Z,7.33
2023-02-14T02:20:03.219Z,7.31
2023-02-14T02:22:50.108Z,7.27
2023-02-14T02:25:35.538Z,7.26
2023-02-14T02:28:16.083Z,7.26
2023-02-14T02:31:03.960Z,7.27
2023-02-14T02:34:04.257Z,7.26
2023-02-14T02:36:45.349Z,7.27
2023-02-14T02:39:23.056Z,7.29
2023-02-14T02:41:57.492Z,7.31
2023-02-14T02:44:46.004Z,7.32
2023-02-14T02:47:29.117Z,7.34
2023-02-14T02:50:47.574Z,7.32
2023-02-14T02:53:30.168Z,7.31
2023-02-14T02:56:16.576Z,7.29
2023-02-14T02:58:49.490Z,7.30
2023-02-14T03:01:24.994Z,7.28
2023-02-14T03:04:32.579Z,7.28
2023-02-14T03:07:02.942Z,7.25
2023-02-14T03:09:29.536Z,7.23
2023-02-14T03:12:16.449Z,7.24
2023-02-14T03:15:01.364Z,7.24
2023-02-14T03:17:43.844Z,7.27
2023-02-14T03:20:16.818Z,7.26
2023-02-14T03:23:00.408Z,7.29
2023-02-14T03:25:52.258Z,7.29
2023-02-14T03:28:42.818Z,7.33
2023-02-14T03:31:24.479Z,7.34
2023-02-14T03:34:02.368Z,7.33
2023-02-14T03:36:41.242Z,7.36
2023-02-14T03:39:24.348Z,7.38
2023-02-14T03:42:25.479Z,7.46
2023-02-14T03:44:57.729Z,7.52
2023-02-14T03:47:31.028Z,7.62
2023-02-14T03:50:04.624Z,7.67
2023-02-14T03:52:36.272Z,7.72
2023-02-14T03:55:06.257Z,7.73
2023-02-14T03:57:45.024Z,7.76
2023-02-14T04:00:13.470Z,7.78
2023-02-14T04:02:52.571Z,7.75
2023-02-14T04:05:26.973Z,7.68
2023-02-14T04:07:59.884Z,7.64
2023-02-14T04:10:29.891Z,7.63
2023-02-14T04:12:57.783Z,7.66
2023-02-14T04:15:25.235Z,7.68
2023-02-14T04:18:11.499Z,7.74
2023-02-14T04:20:40.164Z,7.75
2023-02-14T04:23:09.801Z,7.76
2023-02-14T04:25:42.073Z,7.74
2023-02-14T04:28:10.508Z,7.73
2023-02-14T04:30:38.548Z,7.75
2023-02-14T04:33:07.671Z,7.77
2023-02-14T04:35:37.848Z,7.79
2023-02-14T04:38:07.928Z,7.83
2023-02-14T04:40:40.753Z,7.86
2023-02-14T04:43:10.783Z,7.91
2023-02-14T04:45:43.251Z,7.98
2023-02-14T04:48:11.090Z,8.03
2023-02-14T04:50:41.181Z,8.06
2023-02-14T04:53:13.212Z,8.08
2023-02-14T04:55:43.905Z,8.05
2023-02-14T04:58:15.587Z,8.02
2023-02-14T05:00:43.536Z,7.97
2023-02-14T05:03:10.827Z,7.92
2023-02-14T05:05:44.287Z,7.87
2023-02-14T05:08:13.934Z,7.85
2023-02-14T05:10:41.319Z,7.85
2023-02-14T05:13:09.901Z,7.84
2023-02-14T05:15:38.652Z,7.84
2023-02-14T05:18:08.465Z,7.86
2023-02-14T05:20:40.860Z,7.88
2023-02-14T05:23:13.729Z,7.90
2023-02-14T05:25:43.214Z,7.91
2023-02-14T05:28:10.875Z,7.91
2023-02-14T05:30:39.227Z,7.93
2023-02-14T05:33:08.574Z,7.94
2023-02-14T05:35:36.703Z,7.97
2023-02-14T05:38:07.449Z,8.01
2023-02-14T05:40:36.947Z,8.02
2023-02-14T05:43:08.983Z,8.01
2023-02-14T05:45:37.908Z,7.99
2023-02-14T05:48:11.497Z,7.99
2023-02-14T05:50:41.431Z,7.99
2023-02-14T05:53:11.831Z,7.95
2023-02-14T05:55:40.191Z,7.92
2023-02-14T05:58:08.647Z,7.94
2023-02-14T06:00:43.201Z,7.96
2023-02-14T06:03:12.125Z,7.99
2023-02-14T06:05:45.141Z,8.01
2023-02-14T06:08:11.995Z,8.00
2023-02-14T06:10:40.510Z,8.00
2023-02-14T06:13:13.538Z,8.03
2023-02-14T06:15:42.042Z,8.01
2023-02-14T06:18:13.897Z,7.98
2023-02-14T06:20:42.330Z,7.99
2023-02-14T06:23:10.769Z,8.02
2023-02-14T06:25:40.985Z,8.05
2023-02-14T06:28:10.686Z,8.08
2023-02-14T06:30:41.312Z,8.09
2023-02-14T06:33:16.152Z,8.13
2023-02-14T06:35:46.699Z,8.15
2023-02-14T06:38:14.456Z,8.17
2023-02-14T06:40:42.537Z,8.20
2023-02-14T06:43:11.325Z,8.25
2023-02-14T06:45:41.799Z,8.27
2023-02-14T06:48:10.807Z,8.27
2023-02-14T06:50:38.703Z,8.27
2023-02-14T06:53:12.732Z,8.28
2023-02-14T06:55:42.952Z,8.28
2023-02-14T06:58:16.693Z,8.27
2023-02-14T07:00:45.145Z,8.30
2023-02-14T07:03:21.520Z,8.29
2023-02-14T07:05:52.778Z,8.29
2023-02-14T07:08:20.862Z,8.28
2023-02-14T07:10:49.026Z,8.30
2023-02-14T07:13:16.413Z,8.33
2023-02-14T07:15:49.936Z,8.35
2023-02-14T07:18:19.945Z,8.38
2023-02-14T07:20:48.781Z,8.39
2023-02-14T07:23:21.366Z,8.43
2023-02-14T07:25:49.238Z,8.49
2023-02-14T07:28:17.073Z,8.55
2023-02-14T07:30:47.615Z,8.62
2023-02-14T07:33:18.928Z,8.68
2023-02-14T07:35:46.346Z,8.74
2023-02-14T07:38:14.769Z,8.79
2023-02-14T07:40:45.017Z,8.83
2023-02-14T07:43:13.636Z,8.87
2023-02-14T07:45:42.073Z,8.91
2023-02-14T07:48:15.503Z,8.95
2023-02-14T07:50:47.103Z,8.97
2023-02-14T07:53:16.457Z,8.99
2023-02-14T07:55:47.388Z,9.01
2023-02-14T07:58:17.254Z,9.04
2023-02-14T08:00:50.041Z,9.06
2023-02-14T08:03:19.137Z,9.11
2023-02-14T08:05:58.607Z,9.15
2023-02-14T08:08:28.657Z,9.17
2023-02-14T08:10:58.757Z,9.19
2023-02-14T08:13:30.392Z,9.20
2023-02-14T08:16:13.445Z,9.22
2023-02-14T08:18:44.818Z,9.24
2023-02-14T08:21:14.902Z,9.28
2023-02-14T08:23:41.643Z,9.31
2023-02-14T08:26:11.149Z,9.34
2023-02-14T08:28:39.588Z,9.38
2023-02-14T08:31:09.040Z,9.41
2023-02-14T08:33:37.443Z,9.47
2023-02-14T08:36:05.246Z,9.51
2023-02-14T08:38:32.076Z,9.60
2023-02-14T08:41:07.595Z,9.68
2023-02-14T08:43:35.977Z,9.74
2023-02-14T08:46:03.897Z,9.78
2023-02-14T08:48:33.120Z,9.80
2023-02-14T08:51:05.589Z,9.84
2023-02-14T08:53:36.216Z,9.87
2023-02-14T08:56:10.146Z,9.91
2023-02-14T08:58:41.183Z,9.92
2023-02-14T09:01:10.940Z,9.90
2023-02-14T09:03:38.539Z,9.87
2023-02-14T09:06:13.929Z,9.85
2023-02-14T09:08:41.805Z,9.83
2023-02-14T09:11:11.253Z,9.82
2023-02-14T09:13:41.721Z,9.84
2023-02-14T09:16:10.663Z,9.88
2023-02-14T09:18:37.653Z,9.88
2023-02-14T09:21:15.047Z,9.89
2023-02-14T09:23:43.491Z,9.92
2023-02-14T09:26:12.954Z,9.95
2023-02-14T09:28:43.435Z,9.98
2023-02-14T09:31:10.924Z,10.02
2023-02-14T09:33:39.911Z,10.05
2023-02-14T09:36:19.325Z,10.07
2023-02-14T09:38:48.166Z,10.13
2023-02-14T09:41:33.654Z,10.14
2023-02-14T09:44:12.762Z,10.16
2023-02-14T09:46:47.162Z,10.20
2023-02-14T09:49:18.971Z,10.32
2023-02-14T09:51:52.505Z,10.45
2023-02-14T09:54:28.484Z,10.46
2023-02-14T09:57:25.513Z,10.47
2023-02-14T10:00:00.036Z,10.50
2023-02-14T10:03:19.066Z,10.53
2023-02-14T10:06:03.607Z,10.60
2023-02-14T10:08:56.559Z,10.68
2023-02-14T10:11:25.996Z,10.71
2023-02-14T10:14:04.492Z,10.76
2023-02-14T10:16:46.028Z,10.87
2023-02-14T10:19:26.482Z,11.04
2023-02-14T10:22:02.672Z,11.15
2023-02-14T10:25:02.071Z,11.22
2023-02-14T10:27:36.996Z,11.22
2023-02-14T10:30:14.497Z,11.19
2023-02-14T10:32:59.571Z,11.24
2023-02-14T10:36:18.311Z,11.33
2023-02-14T10:39:11.197Z,11.54
2023-02-14T10:42:16.048Z,11.80
2023-02-14T10:44:56.758Z,11.96
2023-02-14T10:47:35.825Z,12.10
2023-02-14T10:50:24.120Z,12.35
2023-02-14T10:53:34.607Z,12.50
2023-02-14T10:56:12.001Z,12.46
2023-02-14T10:58:41.544Z,12.45
2023-02-14T11:01:17.558Z,12.43
2023-02-14T11:04:06.778Z,12.31
2023-02-14T11:06:33.618Z,12.28
2023-02-14T11:09:00.529Z,12.31
2023-02-14T11:11:30.410Z,12.31
2023-02-14T11:13:57.153Z,12.48
2023-02-14T11:16:31.544Z,12.46
2023-02-14T11:19:16.486Z,12.45
2023-02-14T11:21:45.238Z,12.44
2023-02-14T11:24:23.947Z,12.33
2023-02-14T11:26:53.257Z,12.27
2023-02-14T11:29:40.783Z,12.13
2023-02-14T11:32:16.385Z,12.00
2023-02-14T11:34:52.849Z,11.91
2023-02-14T11:37:23.274Z,11.87
2023-02-14T11:39:51.311Z,11.78
2023-02-14T11:42:49.479Z,11.69
2023-02-14T11:45:35.205Z,11.67
2023-02-14T11:48:15.078Z,11.65
2023-02-14T11:50:42.693Z,11.72
2023-02-14T11:53:12.671Z,11.90
2023-02-14T11:55:41.303Z,12.07
2023-02-14T11:58:18.292Z,12.23
2023-02-14T12:00:53.237Z,12.36
2023-02-14T12:03:20.276Z,12.48
2023-02-14T12:05:50.224Z,12.59
2023-02-14T12:08:25.346Z,12.65
2023-02-14T12:11:04.106Z,12.75
2023-02-14T12:13:32.360Z,12.79
2023-02-14T12:16:58.970Z,12.81
2023-02-14T12:19:52.118Z,12.88
2023-02-14T12:22:41.245Z,12.87
2023-02-14T12:25:21.833Z,12.87
2023-02-14T12:28:04.255Z,12.87
2023-02-14T12:30:35.382Z,12.86
2023-02-14T12:33:05.036Z,12.84
2023-02-14T12:35:50.259Z,12.82
2023-02-14T12:38:35.083Z,12.82
2023-02-14T12:41:25.530Z,12.81
2023-02-14T12:44:10.914Z,12.79
2023-02-14T12:46:54.097Z,12.77
2023-02-14T12:49:29.778Z,12.76
2023-02-14T12:52:03.053Z,12.78
2023-02-14T12:54:51.241Z,12.79
2023-02-14T12:57:50.503Z,12.80
2023-02-14T13:00:38.371Z,12.82
2023-02-14T13:03:30.727Z,12.85
2023-02-14T13:06:18.490Z,12.89
2023-02-14T13:09:27.616Z,12.95
2023-02-14T13:12:23.340Z,12.99
2023-02-14T13:15:11.222Z,13.01
2023-02-14T13:17:41.232Z,12.98
2023-02-14T13:20:25.198Z,12.96
2023-02-14T13:22:54.823Z,12.94
2023-02-14T13:25:33.915Z,12.92
2023-02-14T13:28:05.833Z,12.95
2023-02-14T13:30:41.447Z,13.04
2023-02-14T13:33:18.570Z,13.21
2023-02-14T13:35:45.972Z,13.58
2023-02-14T13:38:16.375Z,13.74
2023-02-14T13:40:43.342Z,13.88
2023-02-14T13:43:10.176Z,13.89
2023-02-14T13:45:39.838Z,13.93
2023-02-14T13:48:13.977Z,13.93
2023-02-14T13:51:03.557Z,13.97
2023-02-14T13:53:44.028Z,14.13
2023-02-14T13:56:15.452Z,14.92
2023-02-14T13:58:49.729Z,15.20
2023-02-14T14:01:39.112Z,15.66
2023-02-14T14:04:33.689Z,15.73
2023-02-14T14:07:00.599Z,15.79
2023-02-14T14:09:42.857Z,15.69
2023-02-14T14:12:27.665Z,15.51
2023-02-14T14:15:07.269Z,15.34
2023-02-14T14:17:46.107Z,15.19
2023-02-14T14:20:21.994Z,15.08
2023-02-14T14:22:48.797Z,15.08
2023-02-14T14:25:31.182Z,15.08
2023-02-14T14:27:58.899Z,15.00
2023-02-14T14:30:31.202Z,14.95
2023-02-14T14:33:30.004Z,14.84
2023-02-14T14:36:07.818Z,14.80
2023-02-14T14:39:34.987Z,14.68
2023-02-14T14:43:16.173Z,14.57
2023-02-14T14:45:47.029Z,14.46
2023-02-14T14:48:20.427Z,14.37
2023-02-14T14:50:49.320Z,14.35
2023-02-14T14:53:28.440Z,14.32
2023-02-14T14:55:56.596Z,14.29
2023-02-14T14:58:31.593Z,14.24
2023-02-14T15:00:59.006Z,14.18
2023-02-14T15:03:28.857Z,14.13
2023-02-14T15:06:18.273Z,14.06
2023-02-14T15:09:56.446Z,14.00
2023-02-14T15:12:42.833Z,13.94
2023-02-14T15:15:15.815Z,13.93
2023-02-14T15:17:44.032Z,13.94
2023-02-14T15:20:18.960Z,13.94
2023-02-14T15:22:48.649Z,13.98
2023-02-14T15:25:31.581Z,13.99
2023-02-14T15:27:58.231Z,13.98
2023-02-14T15:30:30.868Z,14.00
2023-02-14T15:32:58.279Z,14.02
2023-02-14T15:35:29.186Z,14.04
2023-02-14T15:38:01.410Z,14.09
2023-02-14T15:40:34.007Z,14.11
2023-02-14T15:43:18.072Z,14.10
2023-02-14T15:45:51.461Z,14.14
2023-02-14T15:48:33.557Z,14.15
2023-02-14T15:51:02.741Z,14.21
2023-02-14T15:53:44.938Z,14.26
2023-02-14T15:56:27.279Z,14.33
2023-02-14T15:59:00.928Z,14.35
2023-02-14T16:01:28.902Z,14.36
2023-02-14T16:03:59.534Z,14.36
2023-02-14T16:06:48.079Z,14.38
2023-02-14T16:09:28.890Z,14.48
2023-02-14T16:11:56.008Z,14.54
2023-02-14T16:14:35.281Z,14.56
2023-02-14T16:17:07.008Z,14.52
2023-02-14T16:19:43.698Z,14.43
2023-02-14T16:22:26.360Z,14.27
2023-02-14T16:24:53.008Z,14.08
2023-02-14T16:27:19.735Z,13.95
2023-02-14T16:29:46.835Z,13.79
2023-02-14T16:32:20.596Z,13.66
2023-02-14T16:34:48.483Z,13.52
2023-02-14T16:37:22.335Z,13.35
2023-02-14T16:39:54.850Z,13.21
2023-02-14T16:42:21.582Z,13.08
2023-02-14T16:44:48.625Z,12.97
2023-02-14T16:47:17.511Z,12.88
2023-02-14T16:49:44.580Z,12.78
2023-02-14T16:52:17.667Z,12.69
2023-02-14T16:54:44.569Z,12.61
2023-02-14T16:57:21.230Z,12.51
2023-02-14T16:59:48.006Z,12.44
2023-02-14T17:02:16.108Z,12.34
2023-02-14T17:04:42.885Z,12.25
2023-02-14T17:07:10.182Z,12.18
2023-02-14T17:09:41.880Z,12.11
2023-02-14T17:12:16.527Z,12.00
2023-02-14T17:14:48.711Z,11.90
2023-02-14T17:17:15.998Z,11.80
2023-02-14T17:19:43.551Z,11.71
2023-02-14T17:22:13.602Z,11.61
2023-02-14T17:24:40.765Z,11.54
2023-02-14T17:27:08.801Z,11.45
2023-02-14T17:29:35.579Z,11.38
2023-02-14T17:32:02.423Z,11.33
2023-02-14T17:34:33.450Z,11.27
2023-02-14T17:37:00.263Z,11.22
2023-02-14T17:39:27.032Z,11.17
2023-02-14T17:41:54.370Z,11.14
2023-02-14T17:44:21.095Z,11.07
2023-02-14T17:46:47.965Z,11.01
2023-02-14T17:49:14.833Z,10.97
2023-02-14T17:51:41.526Z,10.90
2023-02-14T17:54:08.344Z,10.85
2023-02-14T17:56:35.145Z,10.81
2023-02-14T17:59:01.807Z,10.77
2023-02-14T18:01:31.635Z,10.72
2023-02-14T18:03:58.680Z,10.67
2023-02-14T18:06:26.755Z,10.65
2023-02-14T18:08:56.915Z,10.59
2023-02-14T18:11:26.357Z,10.56
2023-02-14T18:13:55.260Z,10.53
2023-02-14T18:16:22.174Z,10.50
2023-02-14T18:18:48.973Z,10.47
2023-02-14T18:21:20.275Z,10.45
2023-02-14T18:23:47.151Z,10.42
2023-02-14T18:26:15.818Z,10.40
2023-02-14T18:28:42.887Z,10.37
2023-02-14T18:31:18.559Z,10.36
2023-02-14T18:33:46.957Z,10.32
2023-02-14T18:36:16.596Z,10.30
2023-02-14T18:38:45.205Z,10.29
2023-02-14T18:41:15.473Z,10.27
2023-02-14T18:43:43.597Z,10.25
2023-02-14T18:46:16.878Z,10.23
2023-02-14T18:48:43.720Z,10.23
2023-02-14T18:51:19.749Z,10.21
2023-02-14T18:53:47.364Z,10.23
2023-02-14T18:56:18.041Z,10.29
2023-02-14T18:58:48.130Z,10.33
2023-02-14T19:01:17.904Z,10.36
2023-02-14T19:03:45.302Z,10.37
2023-02-14T19:06:13.143Z,10.40
2023-02-14T19:08:40.809Z,10.39
2023-02-14T19:11:15.453Z,10.40
2023-02-14T19:13:49.949Z,10.41
2023-02-14T19:16:19.840Z,10.39
2023-02-14T19:18:46.904Z,10.39
2023-02-14T19:21:16.759Z,10.37
2023-02-14T19:23:44.098Z,10.35
2023-02-14T19:26:12.427Z,10.33
2023-02-14T19:28:39.904Z,10.30
2023-02-14T19:31:07.375Z,10.25
2023-02-14T19:33:45.406Z,10.23
2023-02-14T19:36:15.303Z,10.19
2023-02-14T19:38:44.499Z,10.17
2023-02-14T19:41:20.503Z,10.15
2023-02-14T19:43:48.823Z,10.14
2023-02-14T19:46:17.148Z,10.14
2023-02-14T19:48:44.951Z,10.13
2023-02-14T19:51:21.714Z,10.12
2023-02-14T19:53:49.892Z,10.12
2023-02-14T19:56:21.514Z,10.12
2023-02-14T19:58:49.656Z,10.12
2023-02-14T20:01:27.340Z,10.11
2023-02-14T20:03:54.604Z,10.13
2023-02-14T20:06:22.816Z,10.13
2023-02-14T20:08:50.054Z,10.14
2023-02-14T20:11:39.063Z,10.15
2023-02-14T20:14:06.844Z,10.16
2023-02-14T20:16:35.871Z,10.15
2023-02-14T20:19:04.953Z,10.14
2023-02-14T20:21:31.878Z,10.10
2023-02-14T20:24:01.028Z,10.08
2023-02-14T20:26:32.183Z,10.05
2023-02-14T20:29:01.458Z,10.03
2023-02-14T20:31:28.247Z,9.99
2023-02-14T20:33:56.925Z,9.97
2023-02-14T20:36:24.542Z,9.94
2023-02-14T20:38:55.841Z,9.90
2023-02-14T20:41:23.070Z,9.87
2023-02-14T20:43:49.826Z,9.85
2023-02-14T20:46:16.557Z,9.84
2023-02-14T20:48:43.556Z,9.82
2023-02-14T20:51:20.931Z,9.80
2023-02-14T20:53:48.299Z,9.77
2023-02-14T20:56:15.947Z,9.75
2023-02-14T20:58:43.246Z,9.73
2023-02-14T21:01:10.164Z,9.73
2023-02-14T21:03:37.652Z,9.73
2023-02-14T21:06:06.000Z,9.73
2023-02-14T21:08:33.613Z,9.72
2023-02-14T21:11:00.709Z,9.71
2023-02-14T21:13:27.775Z,9.71
2023-02-14T21:15:54.816Z,9.70
2023-02-14T21:18:22.052Z,9.68
2023-02-14T21:20:48.741Z,9.65
2023-02-14T21:23:15.710Z,9.64
2023-02-14T21:25:42.386Z,9.62
2023-02-14T21:28:09.078Z,9.60
2023-02-14T21:30:35.997Z,9.54
2023-02-14T21:33:04.624Z,9.52
2023-02-14T21:35:31.404Z,9.52
2023-02-14T21:37:58.377Z,9.51
2023-02-14T21:40:25.094Z,9.51
2023-02-14T21:42:51.824Z,9.49
2023-02-14T21:45:37.445Z,9.49
2023-02-14T21:48:22.882Z,9.49
2023-02-14T21:50:49.726Z,9.51
2023-02-14T21:53:16.420Z,9.55
2023-02-14T21:55:43.774Z,9.57
2023-02-14T21:58:10.688Z,9.57
2023-02-14T22:00:37.353Z,9.54
2023-02-14T22:03:04.220Z,9.55
2023-02-14T22:05:31.012Z,9.54
2023-02-14T22:07:57.686Z,9.53
2023-02-14T22:10:24.390Z,9.48
2023-02-14T22:12:51.357Z,9.47
2023-02-14T22:15:18.030Z,9.44
2023-02-14T22:17:45.126Z,9.42
2023-02-14T22:20:12.366Z,9.43
2023-02-14T22:22:39.020Z,9.45
2023-02-14T22:25:06.020Z,9.44
2023-02-14T22:27:32.992Z,9.43
2023-02-14T22:29:59.771Z,9.45
2023-02-14T22:32:26.591Z,9.46
2023-02-14T22:34:55.201Z,9.47
2023-02-14T22:37:21.956Z,9.48
2023-02-14T22:39:49.744Z,9.50
2023-02-14T22:42:16.690Z,9.52
2023-02-14T22:44:43.648Z,9.56
2023-02-14T22:47:10.334Z,9.58
2023-02-14T22:49:37.244Z,9.61
2023-02-14T22:52:04.009Z,9.60
2023-02-14T22:54:30.813Z,9.61
2023-02-14T22:56:57.713Z,9.60
2023-02-14T22:59:28.353Z,9.57
2023-02-14T23:01:57.829Z,9.58
2023-02-14T23:04:25.160Z,9.61
2023-02-14T23:06:53.138Z,9.62
2023-02-14T23:09:20.247Z,9.62
2023-02-14T23:11:47.236Z,9.58
2023-02-14T23:14:34.221Z,9.58
2023-02-14T23:17:16.308Z,9.57
2023-02-14T23:20:02.842Z,9.55
2023-02-14T23:22:40.360Z,9.55
2023-02-14T23:25:12.191Z,9.54
2023-02-14T23:27:44.259Z,9.51
2023-02-14T23:30:14.333Z,9.52
2023-02-14T23:32:43.382Z,9.50
2023-02-14T23:35:10.848Z,9.48
2023-02-14T23:37:38.056Z,9.46
2023-02-14T23:40:05.462Z,9.44
2023-02-14T23:42:32.473Z,9.45
2023-02-14T23:45:19.252Z,9.39
2023-02-14T23:47:46.147Z,9.40
2023-02-14T23:50:12.823Z,9.37
2023-02-14T23:52:41.990Z,9.38
2023-02-14T23:55:09.382Z,9.38
2023-02-14T23:57:36.366Z,9.38
